sensor_id;sensor_type;location;lat;lon;timestamp;temperature;humidity
12408;DHT22;6268;48.188;17.134;2023-04-15T00:01:58;5.80;99.90
12408;DHT22;6268;48.188;17.134;2023-04-15T00:04:27;5.80;99.90
12408;DHT22;6268;48.188;17.134;2023-04-15T00:06:57;5.80;99.90
12408;DHT22;6268;48.188;17.134;2023-04-15T00:09:28;5.70;99.90
12408;DHT22;6268;48.188;17.134;2023-04-15T00:11:57;5.70;99.90
12408;DHT22;6268;48.188;17.134;2023-04-15T00:14:25;5.80;99.90
12408;DHT22;6268;48.188;17.134;2023-04-15T00:16:55;5.80;99.90
12408;DHT22;6268;48.188;17.134;2023-04-15T00:19:24;5.80;99.90
12408;DHT22;6268;48.188;17.134;2023-04-15T00:21:53;5.70;99.90
12408;DHT22;6268;48.188;17.134;2023-04-15T00:24:22;5.70;99.90
12408;DHT22;6268;48.188;17.134;2023-04-15T00:26:53;5.70;99.90
12408;DHT22;6268;48.188;17.134;2023-04-15T00:29:22;5.70;99.90
12408;DHT22;6268;48.188;17.134;2023-04-15T00:31:51;5.60;99.90
12408;DHT22;6268;48.188;17.134;2023-04-15T00:34:23;5.60;99.90
12408;DHT22;6268;48.188;17.134;2023-04-15T00:36:52;5.60;99.90
12408;DHT22;6268;48.188;17.134;2023-04-15T00:39:22;5.60;99.90
12408;DHT22;6268;48.188;17.134;2023-04-15T00:41:52;5.40;99.90
12408;DHT22;6268;48.188;17.134;2023-04-15T00:44:23;5.40;99.90
12408;DHT22;6268;48.188;17.134;2023-04-15T00:46:53;5.40;99.90
12408;DHT22;6268;48.188;17.134;2023-04-15T00:49:22;5.40;99.90
12408;DHT22;6268;48.188;17.134;2023-04-15T00:51:53;5.40;99.90
12408;DHT22;6268;48.188;17.134;2023-04-15T00:54:22;5.40;99.90
12408;DHT22;6268;48.188;17.134;2023-04-15T00:56:53;5.40;99.90
12408;DHT22;6268;48.188;17.134;2023-04-15T00:59:23;5.40;99.90
12408;DHT22;6268;48.188;17.134;2023-04-15T01:01:52;5.40;99.90
12408;DHT22;6268;48.188;17.134;2023-04-15T01:04:21;5.40;99.90
12408;DHT22;6268;48.188;17.134;2023-04-15T01:06:50;5.40;99.90
12408;DHT22;6268;48.188;17.134;2023-04-15T01:09:28;5.40;99.90
12408;DHT22;6268;48.188;17.134;2023-04-15T01:11:59;5.40;99.90
12408;DHT22;6268;48.188;17.134;2023-04-15T01:14:28;5.40;99.90
12408;DHT22;6268;48.188;17.134;2023-04-15T01:16:58;5.30;99.90
12408;DHT22;6268;48.188;17.134;2023-04-15T01:19:27;5.30;99.90
12408;DHT22;6268;48.188;17.134;2023-04-15T01:21:57;5.40;99.90
12408;DHT22;6268;48.188;17.134;2023-04-15T01:24:27;5.40;99.90
12408;DHT22;6268;48.188;17.134;2023-04-15T01:27:00;5.40;99.90
12408;DHT22;6268;48.188;17.134;2023-04-15T01:29:31;5.40;99.90
12408;DHT22;6268;48.188;17.134;2023-04-15T01:32:03;5.40;99.90
12408;DHT22;6268;48.188;17.134;2023-04-15T01:34:35;5.40;99.90
12408;DHT22;6268;48.188;17.134;2023-04-15T01:37:05;5.40;99.90
12408;DHT22;6268;48.188;17.134;2023-04-15T01:39:34;5.40;99.90
12408;DHT22;6268;48.188;17.134;2023-04-15T01:42:08;5.40;99.90
12408;DHT22;6268;48.188;17.134;2023-04-15T01:44:38;5.40;99.90
12408;DHT22;6268;48.188;17.134;2023-04-15T01:47:07;5.40;99.90
12408;DHT22;6268;48.188;17.134;2023-04-15T01:49:39;5.40;99.90
12408;DHT22;6268;48.188;17.134;2023-04-15T01:52:08;5.40;99.90
12408;DHT22;6268;48.188;17.134;2023-04-15T01:54:37;5.30;99.90
12408;DHT22;6268;48.188;17.134;2023-04-15T01:57:08;5.30;99.90
12408;DHT22;6268;48.188;17.134;2023-04-15T01:59:37;5.20;99.90
12408;DHT22;6268;48.188;17.134;2023-04-15T02:02:06;5.20;99.90
12408;DHT22;6268;48.188;17.134;2023-04-15T02:04:35;5.20;99.90
12408;DHT22;6268;48.188;17.134;2023-04-15T02:07:04;5.20;99.90
12408;DHT22;6268;48.188;17.134;2023-04-15T02:09:33;5.20;99.90
12408;DHT22;6268;48.188;17.134;2023-04-15T02:12:02;5.10;99.90
12408;DHT22;6268;48.188;17.134;2023-04-15T02:14:33;5.10;99.90
12408;DHT22;6268;48.188;17.134;2023-04-15T02:17:06;5.10;99.90
12408;DHT22;6268;48.188;17.134;2023-04-15T02:19:35;5.10;99.90
12408;DHT22;6268;48.188;17.134;2023-04-15T02:22:05;5.10;99.90
12408;DHT22;6268;48.188;17.134;2023-04-15T02:24:35;5.10;99.90
12408;DHT22;6268;48.188;17.134;2023-04-15T02:27:04;5.20;99.90
12408;DHT22;6268;48.188;17.134;2023-04-15T02:29:34;5.10;99.90
12408;DHT22;6268;48.188;17.134;2023-04-15T02:32:04;5.10;99.90
12408;DHT22;6268;48.188;17.134;2023-04-15T02:34:33;5.10;99.90
12408;DHT22;6268;48.188;17.134;2023-04-15T02:37:02;5.20;99.90
12408;DHT22;6268;48.188;17.134;2023-04-15T02:39:31;5.20;99.90
12408;DHT22;6268;48.188;17.134;2023-04-15T02:42:00;5.20;99.90
12408;DHT22;6268;48.188;17.134;2023-04-15T02:44:29;5.20;99.90
12408;DHT22;6268;48.188;17.134;2023-04-15T02:47:00;5.20;99.90
12408;DHT22;6268;48.188;17.134;2023-04-15T02:49:29;5.20;99.90
12408;DHT22;6268;48.188;17.134;2023-04-15T02:51:59;5.20;99.90
12408;DHT22;6268;48.188;17.134;2023-04-15T02:54:28;5.30;99.90
12408;DHT22;6268;48.188;17.134;2023-04-15T02:56:58;5.30;99.90
12408;DHT22;6268;48.188;17.134;2023-04-15T02:59:27;5.30;99.90
12408;DHT22;6268;48.188;17.134;2023-04-15T03:01:57;5.40;99.90
12408;DHT22;6268;48.188;17.134;2023-04-15T03:04:28;5.40;99.90
12408;DHT22;6268;48.188;17.134;2023-04-15T03:06:57;5.30;99.90
12408;DHT22;6268;48.188;17.134;2023-04-15T03:09:27;5.40;99.90
12408;DHT22;6268;48.188;17.134;2023-04-15T03:11:56;5.40;99.90
12408;DHT22;6268;48.188;17.134;2023-04-15T03:14:25;5.40;99.90
12408;DHT22;6268;48.188;17.134;2023-04-15T03:16:54;5.50;99.90
12408;DHT22;6268;48.188;17.134;2023-04-15T03:19:23;5.40;99.90
12408;DHT22;6268;48.188;17.134;2023-04-15T03:21:53;5.40;99.90
12408;DHT22;6268;48.188;17.134;2023-04-15T03:24:22;5.40;99.90
12408;DHT22;6268;48.188;17.134;2023-04-15T03:26:52;5.40;99.90
12408;DHT22;6268;48.188;17.134;2023-04-15T03:29:21;5.40;99.90
12408;DHT22;6268;48.188;17.134;2023-04-15T03:31:51;5.40;99.90
12408;DHT22;6268;48.188;17.134;2023-04-15T03:34:20;5.40;99.90
12408;DHT22;6268;48.188;17.134;2023-04-15T03:36:49;5.40;99.90
12408;DHT22;6268;48.188;17.134;2023-04-15T03:39:20;5.40;99.90
12408;DHT22;6268;48.188;17.134;2023-04-15T03:41:49;5.50;99.90
12408;DHT22;6268;48.188;17.134;2023-04-15T03:44:18;5.40;99.90
12408;DHT22;6268;48.188;17.134;2023-04-15T03:46:47;5.50;99.90
12408;DHT22;6268;48.188;17.134;2023-04-15T03:49:16;5.50;99.90
12408;DHT22;6268;48.188;17.134;2023-04-15T03:51:46;5.60;99.90
12408;DHT22;6268;48.188;17.134;2023-04-15T03:54:15;5.50;99.90
12408;DHT22;6268;48.188;17.134;2023-04-15T03:56:45;5.50;99.90
12408;DHT22;6268;48.188;17.134;2023-04-15T03:59:14;5.50;99.90
12408;DHT22;6268;48.188;17.134;2023-04-15T04:01:44;5.60;99.90
12408;DHT22;6268;48.188;17.134;2023-04-15T04:04:13;5.60;99.90
12408;DHT22;6268;48.188;17.134;2023-04-15T04:06:43;5.60;99.90
12408;DHT22;6268;48.188;17.134;2023-04-15T04:09:12;5.60;99.90
12408;DHT22;6268;48.188;17.134;2023-04-15T04:11:41;5.60;99.90
12408;DHT22;6268;48.188;17.134;2023-04-15T04:14:13;5.60;99.90
12408;DHT22;6268;48.188;17.134;2023-04-15T04:16:42;5.60;99.90
12408;DHT22;6268;48.188;17.134;2023-04-15T04:19:12;5.60;99.90
12408;DHT22;6268;48.188;17.134;2023-04-15T04:21:41;5.70;99.90
12408;DHT22;6268;48.188;17.134;2023-04-15T04:24:10;5.70;99.90
12408;DHT22;6268;48.188;17.134;2023-04-15T04:26:39;5.70;99.90
12408;DHT22;6268;48.188;17.134;2023-04-15T04:29:08;5.70;99.90
12408;DHT22;6268;48.188;17.134;2023-04-15T04:31:38;5.70;99.90
12408;DHT22;6268;48.188;17.134;2023-04-15T04:34:07;5.80;99.90
12408;DHT22;6268;48.188;17.134;2023-04-15T04:36:36;5.80;99.90
12408;DHT22;6268;48.188;17.134;2023-04-15T04:39:06;5.80;99.90
12408;DHT22;6268;48.188;17.134;2023-04-15T04:41:35;5.80;99.90
12408;DHT22;6268;48.188;17.134;2023-04-15T04:44:03;5.90;99.90
12408;DHT22;6268;48.188;17.134;2023-04-15T04:46:33;5.90;99.90
12408;DHT22;6268;48.188;17.134;2023-04-15T04:49:03;5.90;99.90
12408;DHT22;6268;48.188;17.134;2023-04-15T04:51:32;5.90;99.90
12408;DHT22;6268;48.188;17.134;2023-04-15T04:54:00;6.00;99.90
12408;DHT22;6268;48.188;17.134;2023-04-15T04:56:30;6.00;99.90
12408;DHT22;6268;48.188;17.134;2023-04-15T04:59:01;6.00;99.90
12408;DHT22;6268;48.188;17.134;2023-04-15T05:01:30;6.00;99.90
12408;DHT22;6268;48.188;17.134;2023-04-15T05:03:59;6.00;99.90
12408;DHT22;6268;48.188;17.134;2023-04-15T05:06:31;6.10;99.90
12408;DHT22;6268;48.188;17.134;2023-04-15T05:09:00;6.10;99.90
12408;DHT22;6268;48.188;17.134;2023-04-15T05:11:29;6.10;99.90
12408;DHT22;6268;48.188;17.134;2023-04-15T05:13:58;6.10;99.90
12408;DHT22;6268;48.188;17.134;2023-04-15T05:16:28;6.20;99.90
12408;DHT22;6268;48.188;17.134;2023-04-15T05:18:57;6.20;99.90
12408;DHT22;6268;48.188;17.134;2023-04-15T05:21:27;6.20;99.90
12408;DHT22;6268;48.188;17.134;2023-04-15T05:24:05;6.30;99.90
12408;DHT22;6268;48.188;17.134;2023-04-15T05:26:38;6.30;99.90
12408;DHT22;6268;48.188;17.134;2023-04-15T05:29:16;6.30;99.90
12408;DHT22;6268;48.188;17.134;2023-04-15T05:31:44;6.30;99.90
12408;DHT22;6268;48.188;17.134;2023-04-15T05:34:13;6.40;99.90
12408;DHT22;6268;48.188;17.134;2023-04-15T05:36:43;6.40;99.90
12408;DHT22;6268;48.188;17.134;2023-04-15T05:39:14;6.40;99.90
12408;DHT22;6268;48.188;17.134;2023-04-15T05:41:43;6.40;99.90
12408;DHT22;6268;48.188;17.134;2023-04-15T05:44:12;6.50;99.90
12408;DHT22;6268;48.188;17.134;2023-04-15T05:46:41;6.50;99.90
12408;DHT22;6268;48.188;17.134;2023-04-15T05:49:10;6.50;99.90
12408;DHT22;6268;48.188;17.134;2023-04-15T05:51:39;6.50;99.90
12408;DHT22;6268;48.188;17.134;2023-04-15T05:54:08;6.50;99.90
12408;DHT22;6268;48.188;17.134;2023-04-15T05:56:38;6.50;99.90
12408;DHT22;6268;48.188;17.134;2023-04-15T05:59:07;6.60;99.90
12408;DHT22;6268;48.188;17.134;2023-04-15T06:01:36;6.60;99.90
12408;DHT22;6268;48.188;17.134;2023-04-15T06:04:06;6.60;99.90
12408;DHT22;6268;48.188;17.134;2023-04-15T06:06:36;6.60;99.90
12408;DHT22;6268;48.188;17.134;2023-04-15T06:09:05;6.60;99.90
12408;DHT22;6268;48.188;17.134;2023-04-15T06:11:34;6.70;99.90
12408;DHT22;6268;48.188;17.134;2023-04-15T06:14:04;6.70;99.90
12408;DHT22;6268;48.188;17.134;2023-04-15T06:16:33;6.70;99.90
12408;DHT22;6268;48.188;17.134;2023-04-15T06:19:03;6.80;99.90
12408;DHT22;6268;48.188;17.134;2023-04-15T06:21:31;6.80;99.90
12408;DHT22;6268;48.188;17.134;2023-04-15T06:24:00;6.80;99.90
12408;DHT22;6268;48.188;17.134;2023-04-15T06:26:30;6.90;99.90
12408;DHT22;6268;48.188;17.134;2023-04-15T06:28:58;6.90;99.90
12408;DHT22;6268;48.188;17.134;2023-04-15T06:31:29;6.90;99.90
12408;DHT22;6268;48.188;17.134;2023-04-15T06:33:58;6.90;99.90
12408;DHT22;6268;48.188;17.134;2023-04-15T06:36:27;6.90;99.90
12408;DHT22;6268;48.188;17.134;2023-04-15T06:38:56;6.90;99.90
12408;DHT22;6268;48.188;17.134;2023-04-15T06:41:25;7.00;99.90
12408;DHT22;6268;48.188;17.134;2023-04-15T06:43:54;7.10;99.90
12408;DHT22;6268;48.188;17.134;2023-04-15T06:46:23;7.20;99.90
12408;DHT22;6268;48.188;17.134;2023-04-15T06:48:54;7.40;99.90
12408;DHT22;6268;48.188;17.134;2023-04-15T06:51:23;7.40;99.90
12408;DHT22;6268;48.188;17.134;2023-04-15T06:53:53;7.50;99.90
12408;DHT22;6268;48.188;17.134;2023-04-15T06:56:22;7.50;99.90
12408;DHT22;6268;48.188;17.134;2023-04-15T06:58:50;7.70;99.90
12408;DHT22;6268;48.188;17.134;2023-04-15T07:01:19;7.90;99.90
12408;DHT22;6268;48.188;17.134;2023-04-15T07:03:48;8.00;99.90
12408;DHT22;6268;48.188;17.134;2023-04-15T07:06:19;8.00;99.90
12408;DHT22;6268;48.188;17.134;2023-04-15T07:08:51;8.00;99.90
12408;DHT22;6268;48.188;17.134;2023-04-15T07:11:20;8.10;99.90
12408;DHT22;6268;48.188;17.134;2023-04-15T07:13:49;8.20;99.90
12408;DHT22;6268;48.188;17.134;2023-04-15T07:16:17;8.30;99.90
12408;DHT22;6268;48.188;17.134;2023-04-15T07:18:48;8.70;99.90
12408;DHT22;6268;48.188;17.134;2023-04-15T07:21:19;9.20;99.90
12408;DHT22;6268;48.188;17.134;2023-04-15T07:23:48;9.30;99.90
12408;DHT22;6268;48.188;17.134;2023-04-15T07:26:19;9.20;99.90
12408;DHT22;6268;48.188;17.134;2023-04-15T07:28:48;9.50;99.90
12408;DHT22;6268;48.188;17.134;2023-04-15T07:31:17;9.50;99.90
12408;DHT22;6268;48.188;17.134;2023-04-15T07:33:46;9.30;99.90
12408;DHT22;6268;48.188;17.134;2023-04-15T07:36:15;9.20;99.90
12408;DHT22;6268;48.188;17.134;2023-04-15T07:38:46;9.10;99.90
12408;DHT22;6268;48.188;17.134;2023-04-15T07:41:15;8.90;99.90
12408;DHT22;6268;48.188;17.134;2023-04-15T07:43:45;8.80;99.90
12408;DHT22;6268;48.188;17.134;2023-04-15T07:46:14;8.60;99.90
12408;DHT22;6268;48.188;17.134;2023-04-15T07:48:46;8.50;99.90
12408;DHT22;6268;48.188;17.134;2023-04-15T07:51:15;8.30;99.90
12408;DHT22;6268;48.188;17.134;2023-04-15T07:53:48;8.10;99.90
12408;DHT22;6268;48.188;17.134;2023-04-15T07:56:17;8.00;99.90
12408;DHT22;6268;48.188;17.134;2023-04-15T07:58:48;8.00;99.90
12408;DHT22;6268;48.188;17.134;2023-04-15T08:01:17;8.00;99.90
12408;DHT22;6268;48.188;17.134;2023-04-15T08:03:46;8.00;99.90
12408;DHT22;6268;48.188;17.134;2023-04-15T08:06:15;7.90;99.90
12408;DHT22;6268;48.188;17.134;2023-04-15T08:08:43;7.90;99.90
12408;DHT22;6268;48.188;17.134;2023-04-15T08:11:14;8.00;99.90
12408;DHT22;6268;48.188;17.134;2023-04-15T08:13:43;8.10;99.90
12408;DHT22;6268;48.188;17.134;2023-04-15T08:16:19;8.20;99.90
12408;DHT22;6268;48.188;17.134;2023-04-15T08:18:52;8.30;99.90
12408;DHT22;6268;48.188;17.134;2023-04-15T08:21:23;8.40;99.90
12408;DHT22;6268;48.188;17.134;2023-04-15T08:23:54;8.50;99.90
12408;DHT22;6268;48.188;17.134;2023-04-15T08:26:23;8.40;99.90
12408;DHT22;6268;48.188;17.134;2023-04-15T08:28:52;8.30;99.90
12408;DHT22;6268;48.188;17.134;2023-04-15T08:31:21;8.30;99.90
12408;DHT22;6268;48.188;17.134;2023-04-15T08:33:50;8.30;99.90
12408;DHT22;6268;48.188;17.134;2023-04-15T08:36:22;8.40;99.90
12408;DHT22;6268;48.188;17.134;2023-04-15T08:38:55;8.40;99.90
12408;DHT22;6268;48.188;17.134;2023-04-15T08:41:25;8.60;99.90
12408;DHT22;6268;48.188;17.134;2023-04-15T08:43:58;8.70;99.90
12408;DHT22;6268;48.188;17.134;2023-04-15T08:46:31;8.80;99.90
12408;DHT22;6268;48.188;17.134;2023-04-15T08:49:03;8.80;99.90
12408;DHT22;6268;48.188;17.134;2023-04-15T08:51:33;8.90;99.90
12408;DHT22;6268;48.188;17.134;2023-04-15T08:54:04;8.90;99.90
12408;DHT22;6268;48.188;17.134;2023-04-15T08:56:33;8.90;99.90
12408;DHT22;6268;48.188;17.134;2023-04-15T08:59:03;9.00;99.90
12408;DHT22;6268;48.188;17.134;2023-04-15T09:01:33;9.10;99.90
12408;DHT22;6268;48.188;17.134;2023-04-15T09:04:05;9.30;99.90
12408;DHT22;6268;48.188;17.134;2023-04-15T09:06:34;9.40;99.90
12408;DHT22;6268;48.188;17.134;2023-04-15T09:09:05;9.50;99.90
12408;DHT22;6268;48.188;17.134;2023-04-15T09:11:34;9.30;99.90
12408;DHT22;6268;48.188;17.134;2023-04-15T09:14:02;9.50;99.90
12408;DHT22;6268;48.188;17.134;2023-04-15T09:16:34;9.70;99.90
12408;DHT22;6268;48.188;17.134;2023-04-15T09:19:24;9.90;99.90
12408;DHT22;6268;48.188;17.134;2023-04-15T09:21:55;10.50;99.90
12408;DHT22;6268;48.188;17.134;2023-04-15T09:24:34;10.90;99.90
12408;DHT22;6268;48.188;17.134;2023-04-15T09:27:05;11.40;99.90
12408;DHT22;6268;48.188;17.134;2023-04-15T09:29:34;11.70;99.90
12408;DHT22;6268;48.188;17.134;2023-04-15T09:32:11;11.90;99.90
12408;DHT22;6268;48.188;17.134;2023-04-15T09:34:41;11.70;99.90
12408;DHT22;6268;48.188;17.134;2023-04-15T09:37:10;11.50;99.90
12408;DHT22;6268;48.188;17.134;2023-04-15T09:39:59;11.10;99.90
12408;DHT22;6268;48.188;17.134;2023-04-15T09:42:28;10.60;99.90
12408;DHT22;6268;48.188;17.134;2023-04-15T09:45:07;10.20;99.90
12408;DHT22;6268;48.188;17.134;2023-04-15T09:47:36;9.90;99.90
12408;DHT22;6268;48.188;17.134;2023-04-15T09:50:06;9.90;99.90
12408;DHT22;6268;48.188;17.134;2023-04-15T09:52:40;9.70;99.90
12408;DHT22;6268;48.188;17.134;2023-04-15T09:55:12;9.50;99.90
12408;DHT22;6268;48.188;17.134;2023-04-15T09:57:43;9.50;99.90
12408;DHT22;6268;48.188;17.134;2023-04-15T10:00:14;9.50;99.90
12408;DHT22;6268;48.188;17.134;2023-04-15T10:02:44;9.40;99.90
12408;DHT22;6268;48.188;17.134;2023-04-15T10:05:15;9.30;99.90
12408;DHT22;6268;48.188;17.134;2023-04-15T10:07:44;9.30;99.90
12408;DHT22;6268;48.188;17.134;2023-04-15T10:10:16;9.20;99.90
12408;DHT22;6268;48.188;17.134;2023-04-15T10:12:45;9.20;99.90
12408;DHT22;6268;48.188;17.134;2023-04-15T10:15:15;9.20;99.90
12408;DHT22;6268;48.188;17.134;2023-04-15T10:17:44;9.10;99.90
12408;DHT22;6268;48.188;17.134;2023-04-15T10:20:16;9.20;99.90
12408;DHT22;6268;48.188;17.134;2023-04-15T10:22:47;9.30;99.90
12408;DHT22;6268;48.188;17.134;2023-04-15T10:25:19;9.30;99.90
12408;DHT22;6268;48.188;17.134;2023-04-15T10:27:49;9.30;99.90
12408;DHT22;6268;48.188;17.134;2023-04-15T10:30:19;9.20;99.90
12408;DHT22;6268;48.188;17.134;2023-04-15T10:32:49;9.20;99.90
12408;DHT22;6268;48.188;17.134;2023-04-15T10:35:20;9.20;99.90
12408;DHT22;6268;48.188;17.134;2023-04-15T10:37:50;9.20;99.90
12408;DHT22;6268;48.188;17.134;2023-04-15T10:40:28;9.30;99.90
12408;DHT22;6268;48.188;17.134;2023-04-15T10:42:59;9.40;99.90
12408;DHT22;6268;48.188;17.134;2023-04-15T10:45:33;9.40;99.90
12408;DHT22;6268;48.188;17.134;2023-04-15T10:48:06;9.60;99.90
12408;DHT22;6268;48.188;17.134;2023-04-15T10:50:36;9.80;99.90
12408;DHT22;6268;48.188;17.134;2023-04-15T10:53:05;10.00;99.90
12408;DHT22;6268;48.188;17.134;2023-04-15T10:55:39;10.20;99.90
12408;DHT22;6268;48.188;17.134;2023-04-15T10:58:09;10.20;99.90
12408;DHT22;6268;48.188;17.134;2023-04-15T11:00:38;10.40;99.90
12408;DHT22;6268;48.188;17.134;2023-04-15T11:03:07;10.40;99.90
12408;DHT22;6268;48.188;17.134;2023-04-15T11:05:51;10.30;99.90
12408;DHT22;6268;48.188;17.134;2023-04-15T11:08:52;10.30;99.90
12408;DHT22;6268;48.188;17.134;2023-04-15T11:12:03;10.50;99.90
12408;DHT22;6268;48.188;17.134;2023-04-15T11:14:35;10.50;99.90
12408;DHT22;6268;48.188;17.134;2023-04-15T11:17:07;10.50;99.90
12408;DHT22;6268;48.188;17.134;2023-04-15T11:19:36;10.60;99.90
12408;DHT22;6268;48.188;17.134;2023-04-15T11:22:07;10.70;99.90
12408;DHT22;6268;48.188;17.134;2023-04-15T11:24:45;10.70;99.90
12408;DHT22;6268;48.188;17.134;2023-04-15T11:27:21;10.80;99.90
12408;DHT22;6268;48.188;17.134;2023-04-15T11:29:51;10.80;99.90
12408;DHT22;6268;48.188;17.134;2023-04-15T11:32:20;10.90;99.90
12408;DHT22;6268;48.188;17.134;2023-04-15T11:34:51;10.80;99.90
12408;DHT22;6268;48.188;17.134;2023-04-15T11:37:27;10.70;99.90
12408;DHT22;6268;48.188;17.134;2023-04-15T11:39:56;10.60;99.90
12408;DHT22;6268;48.188;17.134;2023-04-15T11:42:27;10.70;99.90
12408;DHT22;6268;48.188;17.134;2023-04-15T11:45:15;10.60;99.90
12408;DHT22;6268;48.188;17.134;2023-04-15T11:47:43;10.60;99.90
12408;DHT22;6268;48.188;17.134;2023-04-15T11:50:16;10.50;99.90
12408;DHT22;6268;48.188;17.134;2023-04-15T11:52:53;10.60;99.90
12408;DHT22;6268;48.188;17.134;2023-04-15T11:55:23;10.60;99.90
12408;DHT22;6268;48.188;17.134;2023-04-15T11:58:08;10.60;99.90
12408;DHT22;6268;48.188;17.134;2023-04-15T12:00:38;10.80;99.90
12408;DHT22;6268;48.188;17.134;2023-04-15T12:03:11;10.70;99.90
12408;DHT22;6268;48.188;17.134;2023-04-15T12:06:08;10.80;99.90
12408;DHT22;6268;48.188;17.134;2023-04-15T12:08:56;10.90;99.90
12408;DHT22;6268;48.188;17.134;2023-04-15T12:11:32;11.00;99.90
12408;DHT22;6268;48.188;17.134;2023-04-15T12:14:06;11.00;99.90
12408;DHT22;6268;48.188;17.134;2023-04-15T12:16:39;11.10;99.90
12408;DHT22;6268;48.188;17.134;2023-04-15T12:19:18;11.20;99.90
12408;DHT22;6268;48.188;17.134;2023-04-15T12:21:58;11.30;99.90
12408;DHT22;6268;48.188;17.134;2023-04-15T12:24:31;11.40;99.90
12408;DHT22;6268;48.188;17.134;2023-04-15T12:27:04;11.50;99.90
12408;DHT22;6268;48.188;17.134;2023-04-15T12:29:36;11.60;99.90
12408;DHT22;6268;48.188;17.134;2023-04-15T12:32:08;11.80;99.90
12408;DHT22;6268;48.188;17.134;2023-04-15T12:34:38;11.80;99.90
12408;DHT22;6268;48.188;17.134;2023-04-15T12:37:10;11.70;99.90
12408;DHT22;6268;48.188;17.134;2023-04-15T12:39:41;11.80;99.90
12408;DHT22;6268;48.188;17.134;2023-04-15T12:42:11;11.90;99.90
12408;DHT22;6268;48.188;17.134;2023-04-15T12:44:41;11.90;99.90
12408;DHT22;6268;48.188;17.134;2023-04-15T12:47:10;12.10;99.90
12408;DHT22;6268;48.188;17.134;2023-04-15T12:49:39;11.90;99.90
12408;DHT22;6268;48.188;17.134;2023-04-15T12:52:08;12.00;99.90
12408;DHT22;6268;48.188;17.134;2023-04-15T12:54:38;12.20;99.90
12408;DHT22;6268;48.188;17.134;2023-04-15T12:57:07;12.30;99.90
12408;DHT22;6268;48.188;17.134;2023-04-15T12:59:36;12.30;99.90
12408;DHT22;6268;48.188;17.134;2023-04-15T13:02:06;12.30;99.90
12408;DHT22;6268;48.188;17.134;2023-04-15T13:04:35;12.20;99.90
12408;DHT22;6268;48.188;17.134;2023-04-15T13:07:04;12.10;99.90
12408;DHT22;6268;48.188;17.134;2023-04-15T13:09:33;11.90;99.90
12408;DHT22;6268;48.188;17.134;2023-04-15T13:12:02;12.00;99.90
12408;DHT22;6268;48.188;17.134;2023-04-15T13:14:31;12.00;99.90
12408;DHT22;6268;48.188;17.134;2023-04-15T13:17:00;12.00;99.90
12408;DHT22;6268;48.188;17.134;2023-04-15T13:19:32;12.10;99.90
12408;DHT22;6268;48.188;17.134;2023-04-15T13:22:02;12.00;99.90
12408;DHT22;6268;48.188;17.134;2023-04-15T13:24:31;12.00;99.90
12408;DHT22;6268;48.188;17.134;2023-04-15T13:27:00;12.00;99.90
12408;DHT22;6268;48.188;17.134;2023-04-15T13:29:30;11.80;99.90
12408;DHT22;6268;48.188;17.134;2023-04-15T13:31:59;12.00;99.90
12408;DHT22;6268;48.188;17.134;2023-04-15T13:34:27;12.10;99.90
12408;DHT22;6268;48.188;17.134;2023-04-15T13:36:58;12.00;99.90
12408;DHT22;6268;48.188;17.134;2023-04-15T13:39:32;12.00;99.90
12408;DHT22;6268;48.188;17.134;2023-04-15T13:42:01;12.10;99.90
12408;DHT22;6268;48.188;17.134;2023-04-15T13:44:30;12.10;99.90
12408;DHT22;6268;48.188;17.134;2023-04-15T13:46:58;12.10;99.90
12408;DHT22;6268;48.188;17.134;2023-04-15T13:49:27;12.00;99.90
12408;DHT22;6268;48.188;17.134;2023-04-15T13:51:58;12.00;99.90
12408;DHT22;6268;48.188;17.134;2023-04-15T13:54:26;12.20;99.90
12408;DHT22;6268;48.188;17.134;2023-04-15T13:57:04;12.10;99.90
12408;DHT22;6268;48.188;17.134;2023-04-15T13:59:33;12.20;99.90
12408;DHT22;6268;48.188;17.134;2023-04-15T14:02:02;12.00;99.90
12408;DHT22;6268;48.188;17.134;2023-04-15T14:04:31;11.90;99.90
12408;DHT22;6268;48.188;17.134;2023-04-15T14:07:02;11.80;99.90
12408;DHT22;6268;48.188;17.134;2023-04-15T14:09:31;11.80;99.90
12408;DHT22;6268;48.188;17.134;2023-04-15T14:12:01;11.80;99.90
12408;DHT22;6268;48.188;17.134;2023-04-15T14:14:30;11.70;99.90
12408;DHT22;6268;48.188;17.134;2023-04-15T14:16:59;11.50;99.90
12408;DHT22;6268;48.188;17.134;2023-04-15T14:19:29;11.30;99.90
12408;DHT22;6268;48.188;17.134;2023-04-15T14:21:58;11.10;99.90
12408;DHT22;6268;48.188;17.134;2023-04-15T14:24:28;11.00;99.90
12408;DHT22;6268;48.188;17.134;2023-04-15T14:26:58;10.90;99.90
12408;DHT22;6268;48.188;17.134;2023-04-15T14:29:28;10.80;99.90
12408;DHT22;6268;48.188;17.134;2023-04-15T14:31:57;10.80;99.90
12408;DHT22;6268;48.188;17.134;2023-04-15T14:34:38;10.70;99.90
12408;DHT22;6268;48.188;17.134;2023-04-15T14:37:07;10.70;99.90
12408;DHT22;6268;48.188;17.134;2023-04-15T14:39:37;10.90;99.90
12408;DHT22;6268;48.188;17.134;2023-04-15T14:42:06;11.00;99.90
12408;DHT22;6268;48.188;17.134;2023-04-15T14:44:35;11.10;99.90
12408;DHT22;6268;48.188;17.134;2023-04-15T14:47:04;11.20;99.90
12408;DHT22;6268;48.188;17.134;2023-04-15T14:49:33;11.40;99.90
12408;DHT22;6268;48.188;17.134;2023-04-15T14:52:02;11.50;99.90
12408;DHT22;6268;48.188;17.134;2023-04-15T14:54:31;11.60;99.90
12408;DHT22;6268;48.188;17.134;2023-04-15T14:57:01;11.60;99.90
12408;DHT22;6268;48.188;17.134;2023-04-15T14:59:29;11.60;99.90
12408;DHT22;6268;48.188;17.134;2023-04-15T15:01:58;11.60;99.90
12408;DHT22;6268;48.188;17.134;2023-04-15T15:04:28;11.60;99.90
12408;DHT22;6268;48.188;17.134;2023-04-15T15:06:59;11.60;99.90
12408;DHT22;6268;48.188;17.134;2023-04-15T15:09:27;11.60;99.90
12408;DHT22;6268;48.188;17.134;2023-04-15T15:11:56;11.60;99.90
12408;DHT22;6268;48.188;17.134;2023-04-15T15:14:27;11.60;99.90
12408;DHT22;6268;48.188;17.134;2023-04-15T15:16:56;11.50;99.90
12408;DHT22;6268;48.188;17.134;2023-04-15T15:19:24;11.50;99.90
12408;DHT22;6268;48.188;17.134;2023-04-15T15:21:53;11.50;99.90
12408;DHT22;6268;48.188;17.134;2023-04-15T15:24:22;11.60;99.90
12408;DHT22;6268;48.188;17.134;2023-04-15T15:26:51;11.60;99.90
12408;DHT22;6268;48.188;17.134;2023-04-15T15:29:19;11.40;99.90
12408;DHT22;6268;48.188;17.134;2023-04-15T15:31:50;11.40;99.90
12408;DHT22;6268;48.188;17.134;2023-04-15T15:34:19;11.40;99.90
12408;DHT22;6268;48.188;17.134;2023-04-15T15:36:47;11.50;99.90
12408;DHT22;6268;48.188;17.134;2023-04-15T15:39:16;11.50;99.90
12408;DHT22;6268;48.188;17.134;2023-04-15T15:41:45;11.40;99.90
12408;DHT22;6268;48.188;17.134;2023-04-15T15:44:14;11.30;99.90
12408;DHT22;6268;48.188;17.134;2023-04-15T15:46:43;11.30;99.90
12408;DHT22;6268;48.188;17.134;2023-04-15T15:49:13;11.40;99.90
12408;DHT22;6268;48.188;17.134;2023-04-15T15:51:42;11.30;99.90
12408;DHT22;6268;48.188;17.134;2023-04-15T15:54:11;11.20;99.90
12408;DHT22;6268;48.188;17.134;2023-04-15T15:56:40;11.10;99.90
12408;DHT22;6268;48.188;17.134;2023-04-15T15:59:09;11.10;99.90
12408;DHT22;6268;48.188;17.134;2023-04-15T16:01:38;11.10;99.90